Time;durP1;ratioP1;P1;durP2;ratioP2;P2;SDS_P1;SDS_P2;PMS_P1;PMS_P2;Temp;Humidity;BMP_temperature;BMP_pressure;BME280_temperature;BME280_humidity;BME280_pressure;Samples;Min_cycle;Max_cycle;Signal;HPM_P1;HPM_P2
2022/04/12 00:01:15;;;;;;;4.97;4.33;;;11.50;42.20;;;;;;5056687;28;20201;-45
2022/04/12 00:03:40;;;;;;;4.60;4.20;;;11.40;42.20;;;;;;5056802;28;20206;-45
2022/04/12 00:06:06;;;;;;;5.77;4.47;;;11.40;42.30;;;;;;5056515;28;20166;-45
2022/04/12 00:08:31;;;;;;;5.50;4.87;;;11.30;42.30;;;;;;5057440;28;20174;-45
2022/04/12 00:10:57;;;;;;;4.80;4.03;;;11.30;42.50;;;;;;5056852;28;20189;-45
2022/04/12 00:13:23;;;;;;;7.27;4.67;;;11.30;42.60;;;;;;5056510;28;20385;-45
2022/04/12 00:15:48;;;;;;;7.27;4.87;;;11.20;42.70;;;;;;5057619;28;20189;-45
2022/04/12 00:20:59;;;;;;;5.13;4.57;;;11.20;43.00;;;;;;5056230;28;20210;-45
2022/04/12 00:23:25;;;;;;;6.73;4.90;;;11.10;43.00;;;;;;5055534;28;20918;-44
2022/04/12 00:25:53;;;;;;;6.60;4.60;;;11.10;43.10;;;;;;5056855;28;20476;-46
2022/04/12 00:28:19;;;;;;;5.77;4.73;;;11.10;43.20;;;;;;5057705;28;20175;-45
2022/04/12 00:30:45;;;;;;;4.57;4.03;;;11.00;43.20;;;;;;5057142;28;20421;-45
2022/04/12 00:33:10;;;;;;;6.13;5.13;;;11.00;43.30;;;;;;5056083;28;20423;-45
2022/04/12 00:35:36;;;;;;;5.70;5.07;;;11.00;43.50;;;;;;5057043;28;20323;-45
2022/04/12 00:38:17;;;;;;;5.77;4.90;;;10.90;43.50;;;;;;5056814;28;20275;-44
2022/04/12 00:40:44;;;;;;;5.73;4.63;;;10.90;43.70;;;;;;5056206;28;20907;-45
2022/04/12 00:43:10;;;;;;;4.83;4.30;;;10.90;44.30;;;;;;5054591;28;20494;-45
2022/04/12 00:45:36;;;;;;;5.90;4.30;;;10.80;43.80;;;;;;5055299;28;20425;-45
2022/04/12 00:48:02;;;;;;;5.67;5.03;;;10.80;44.00;;;;;;5056496;28;20277;-45
2022/04/12 00:50:27;;;;;;;5.03;4.43;;;10.70;44.00;;;;;;5055762;28;20690;-45
2022/04/12 00:52:55;;;;;;;5.73;4.43;;;10.70;44.00;;;;;;5054660;28;20448;-45
2022/04/12 00:55:21;;;;;;;5.60;4.80;;;10.70;44.10;;;;;;5055763;28;20448;-45
2022/04/12 00:57:48;;;;;;;5.20;4.70;;;10.70;44.20;;;;;;5056172;28;20957;-45
2022/04/12 01:00:16;;;;;;;5.57;4.17;;;10.70;44.30;;;;;;5055838;28;20451;-45
2022/04/12 01:02:42;;;;;;;5.60;4.27;;;10.70;44.40;;;;;;5055249;28;20460;-45
2022/04/12 01:05:07;;;;;;;5.53;4.60;;;10.60;44.40;;;;;;5055850;28;20427;-45
2022/04/12 01:07:34;;;;;;;5.23;4.73;;;10.60;44.60;;;;;;5056312;28;20417;-45
2022/04/12 01:10:00;;;;;;;6.90;5.03;;;10.60;45.10;;;;;;5055490;28;20456;-45
2022/04/12 01:12:28;;;;;;;6.23;4.60;;;10.50;44.70;;;;;;5056585;28;20420;-45
2022/04/12 01:14:54;;;;;;;6.40;4.13;;;10.50;44.80;;;;;;5055573;28;20681;-45
2022/04/12 01:17:20;;;;;;;4.60;4.13;;;10.50;45.00;;;;;;5056453;28;20423;-45
2022/04/12 01:19:45;;;;;;;5.33;4.47;;;10.50;45.20;;;;;;5055499;28;20222;-45
2022/04/12 01:22:23;;;;;;;5.27;4.37;;;10.40;45.20;;;;;;5055295;28;20572;-45
2022/04/12 01:24:49;;;;;;;5.70;4.40;;;10.40;45.40;;;;;;5054225;28;20455;-45
2022/04/12 01:30:55;;;;;;;5.63;4.03;;;10.30;45.70;;;;;;5055009;28;20778;-45
2022/04/12 01:33:21;;;;;;;6.27;4.30;;;10.30;46.00;;;;;;5054940;28;20432;-44
2022/04/12 01:35:46;;;;;;;4.80;4.30;;;10.20;46.10;;;;;;5055350;28;20193;-45
2022/04/12 01:38:12;;;;;;;6.40;4.30;;;10.20;46.30;;;;;;5049112;28;20284;-45
2022/04/12 01:40:38;;;;;;;4.70;4.20;;;10.20;46.90;;;;;;5054256;28;20603;-45
2022/04/12 01:43:03;;;;;;;5.33;4.20;;;10.10;46.50;;;;;;5054933;28;20271;-45
2022/04/12 01:45:29;;;;;;;5.90;5.00;;;10.10;46.70;;;;;;5056314;28;20573;-45
2022/04/12 01:47:56;;;;;;;4.33;3.93;;;10.00;46.70;;;;;;5055103;28;20255;-45
2022/04/12 01:50:21;;;;;;;5.90;4.50;;;10.00;46.80;;;;;;5053832;28;20346;-45
2022/04/12 01:52:47;;;;;;;6.43;4.33;;;9.90;47.60;;;;;;5053853;28;20427;-45
2022/04/12 01:55:14;;;;;;;6.60;3.77;;;9.90;47.80;;;;;;5053903;28;20221;-45
2022/04/12 01:57:39;;;;;;;6.30;4.60;;;9.90;47.70;;;;;;5055636;28;20212;-45
2022/04/12 02:00:07;;;;;;;5.83;4.47;;;9.90;47.80;;;;;;5054689;28;20425;-45
2022/04/12 02:02:33;;;;;;;4.77;4.27;;;9.90;48.00;;;;;;5055268;28;20213;-45
2022/04/12 02:04:58;;;;;;;5.30;4.60;;;9.90;48.20;;;;;;5055482;28;20754;-45
2022/04/12 02:07:24;;;;;;;5.43;4.47;;;9.80;48.30;;;;;;5055507;28;20303;-45
2022/04/12 02:09:49;;;;;;;4.77;4.17;;;9.80;48.50;;;;;;5054630;28;20220;-45
2022/04/12 02:12:15;;;;;;;5.77;4.07;;;9.70;48.70;;;;;;5055438;28;20182;-45
2022/04/12 02:14:40;;;;;;;4.67;4.27;;;9.70;48.80;;;;;;5056093;28;20199;-45
2022/04/12 02:17:06;;;;;;;6.67;4.70;;;9.70;49.00;;;;;;5054841;28;20189;-45
2022/04/12 02:19:32;;;;;;;5.13;4.60;;;9.60;49.00;;;;;;5055223;28;20568;-45
2022/04/12 02:21:57;;;;;;;4.80;4.17;;;9.60;49.20;;;;;;5054301;28;20427;-45
2022/04/12 02:24:23;;;;;;;4.73;4.23;;;9.60;49.30;;;;;;5054767;28;20178;-45
2022/04/12 02:26:48;;;;;;;5.70;4.63;;;9.50;49.40;;;;;;5054953;28;20248;-45
2022/04/12 02:29:14;;;;;;;4.53;3.90;;;9.50;49.50;;;;;;5053895;28;20174;-44
2022/04/12 02:31:41;;;;;;;4.03;3.73;;;9.50;49.60;;;;;;5054740;28;20222;-45
2022/04/12 02:34:07;;;;;;;5.50;4.23;;;9.40;49.70;;;;;;5054847;28;20197;-44
2022/04/12 02:36:32;;;;;;;4.30;3.67;;;9.40;49.80;;;;;;5054358;28;20413;-45
2022/04/12 02:38:58;;;;;;;5.23;4.70;;;9.40;49.80;;;;;;5054677;28;20691;-45
2022/04/12 02:41:24;;;;;;;4.73;4.30;;;9.40;49.90;;;;;;5055174;28;20178;-45
2022/04/12 02:43:49;;;;;;;5.20;4.27;;;9.40;50.10;;;;;;5053311;28;20213;-45
2022/04/12 02:46:15;;;;;;;6.07;4.20;;;9.30;50.30;;;;;;5054662;28;20182;-45
2022/04/12 02:48:40;;;;;;;6.27;4.90;;;9.30;50.40;;;;;;5054580;28;20185;-45
2022/04/12 02:51:06;;;;;;;5.93;4.60;;;9.30;50.60;;;;;;5054184;28;20247;-45
2022/04/12 02:53:32;;;;;;;4.20;3.77;;;9.30;50.70;;;;;;5057427;28;20182;-45
2022/04/12 02:55:57;;;;;;;5.30;4.60;;;9.30;50.80;;;;;;5058590;28;20220;-45
2022/04/12 02:58:23;;;;;;;5.20;4.50;;;9.30;51.00;;;;;;5058514;28;20201;-45
2022/04/12 03:00:48;;;;;;;4.60;4.20;;;9.30;51.20;;;;;;5056838;28;20554;-45
2022/04/12 03:03:14;;;;;;;4.43;4.03;;;9.20;51.20;;;;;;5056222;28;20217;-45
2022/04/12 03:05:39;;;;;;;4.90;4.40;;;9.20;51.50;;;;;;5056140;28;20182;-45
2022/04/12 03:08:05;;;;;;;4.80;4.30;;;9.20;51.70;;;;;;5054571;28;20225;-45
2022/04/12 03:10:31;;;;;;;4.70;4.20;;;9.20;51.90;;;;;;5056337;28;20171;-45
2022/04/12 03:12:56;;;;;;;4.40;4.00;;;9.10;51.90;;;;;;5052647;28;20210;-45
2022/04/12 03:15:22;;;;;;;4.73;4.07;;;9.10;52.10;;;;;;5056298;28;20184;-45
2022/04/12 03:17:48;;;;;;;5.40;4.10;;;9.10;52.30;;;;;;5057535;28;20182;-45
2022/04/12 03:20:14;;;;;;;4.23;3.83;;;9.00;52.40;;;;;;5056849;28;20269;-45
2022/04/12 03:22:41;;;;;;;4.80;4.20;;;9.00;52.60;;;;;;5057040;28;20569;-45
2022/04/12 03:25:10;;;;;;;4.70;4.00;;;9.10;52.70;;;;;;5056369;28;20551;-45
2022/04/12 03:27:36;;;;;;;4.60;4.20;;;9.00;52.80;;;;;;5055513;28;20663;-45
2022/04/12 03:30:03;;;;;;;5.77;3.60;;;9.00;53.10;;;;;;5055914;28;20471;-45
2022/04/12 03:32:29;;;;;;;5.30;4.50;;;9.00;53.20;;;;;;5053891;28;20420;-45
2022/04/12 03:34:54;;;;;;;5.17;4.53;;;9.00;53.40;;;;;;5055426;28;20399;-45
2022/04/12 03:37:20;;;;;;;6.03;4.50;;;8.90;53.50;;;;;;5054702;28;20343;-45
2022/04/12 03:39:47;;;;;;;4.30;3.90;;;8.90;53.70;;;;;;5053768;28;20177;-44
2022/04/12 03:42:14;;;;;;;5.33;4.20;;;8.90;53.90;;;;;;5054345;28;20194;-45
2022/04/12 03:44:40;;;;;;;4.70;4.20;;;8.90;54.00;;;;;;5055218;28;20489;-45
2022/04/12 03:47:07;;;;;;;4.23;3.83;;;8.90;54.10;;;;;;5055805;28;20417;-44
2022/04/12 03:49:33;;;;;;;4.43;3.97;;;8.80;54.30;;;;;;5054672;28;20520;-45
2022/04/12 03:51:58;;;;;;;5.67;4.40;;;8.80;54.40;;;;;;5053762;28;20445;-45
2022/04/12 03:54:24;;;;;;;4.50;3.90;;;8.80;54.60;;;;;;5054618;28;20463;-45
2022/04/12 03:56:50;;;;;;;4.57;4.17;;;8.80;54.70;;;;;;5052261;28;20269;-44
2022/04/12 03:59:15;;;;;;;4.83;3.90;;;8.80;54.90;;;;;;5052817;28;20179;-45
2022/04/12 04:01:41;;;;;;;7.23;4.70;;;8.80;54.90;;;;;;5049972;28;20603;-44
2022/04/12 04:04:06;;;;;;;4.73;4.30;;;8.80;55.40;;;;;;5050957;28;20248;-44
2022/04/12 04:06:32;;;;;;;4.73;4.20;;;8.80;55.10;;;;;;5049954;28;20193;-43
2022/04/12 04:08:58;;;;;;;5.37;4.87;;;8.80;55.40;;;;;;5050650;28;20182;-42
2022/04/12 04:11:23;;;;;;;6.70;4.80;;;8.80;55.70;;;;;;5050548;28;20271;-44
2022/04/12 04:13:49;;;;;;;4.67;4.07;;;8.80;56.00;;;;;;5052523;28;20188;-43
2022/04/12 04:16:14;;;;;;;5.27;4.33;;;8.80;56.20;;;;;;5051845;28;20246;-44
2022/04/12 04:18:40;;;;;;;5.00;3.87;;;8.80;56.40;;;;;;5053717;28;20178;-44
2022/04/12 04:21:06;;;;;;;4.73;4.00;;;8.70;56.50;;;;;;5054406;28;20261;-43
2022/04/12 04:23:31;;;;;;;6.13;3.90;;;8.70;56.80;;;;;;5054633;28;20288;-43
2022/04/12 04:25:57;;;;;;;5.10;4.23;;;8.70;57.10;;;;;;5052950;28;20226;-42
2022/04/12 04:28:22;;;;;;;5.03;4.33;;;8.70;57.30;;;;;;5052878;28;20162;-42
2022/04/12 04:30:50;;;;;;;5.00;4.20;;;8.60;57.40;;;;;;5053585;28;20189;-42
2022/04/12 04:33:19;;;;;;;4.40;3.93;;;8.60;57.60;;;;;;5052312;28;20611;-43
2022/04/12 04:35:46;;;;;;;4.13;3.73;;;8.60;57.80;;;;;;5050380;28;20425;-42
2022/04/12 04:38:12;;;;;;;5.57;4.00;;;8.60;57.90;;;;;;5051198;28;20519;-43
2022/04/12 04:40:37;;;;;;;4.87;4.33;;;8.60;58.10;;;;;;5052144;28;20485;-43
2022/04/12 04:43:03;;;;;;;4.80;4.00;;;8.50;58.30;;;;;;5050706;28;20479;-45
2022/04/12 04:45:29;;;;;;;4.40;3.87;;;8.50;58.40;;;;;;5051846;28;20171;-45
2022/04/12 04:47:56;;;;;;;7.30;4.50;;;8.50;58.60;;;;;;5053149;28;20174;-44
2022/04/12 04:50:24;;;;;;;4.77;4.37;;;8.50;58.70;;;;;;5051385;28;20411;-46
2022/04/12 04:52:50;;;;;;;4.30;3.90;;;8.50;58.90;;;;;;5034114;28;20494;-42
2022/04/12 04:55:16;;;;;;;4.80;4.30;;;8.50;59.00;;;;;;5049439;28;20558;-44
2022/04/12 04:57:42;;;;;;;5.83;4.70;;;8.50;59.20;;;;;;5047522;28;20430;-43
2022/04/12 05:00:15;;;;;;;5.47;4.73;;;8.50;59.30;;;;;;5046315;28;20420;-43
2022/04/12 05:02:44;;;;;;;6.87;5.43;;;8.50;59.90;;;;;;5047697;28;20464;-43
2022/04/12 05:05:10;;;;;;;6.47;5.07;;;8.50;59.50;;;;;;5047548;28;20599;-43
2022/04/12 05:07:36;;;;;;;5.30;4.77;;;8.60;60.40;;;;;;5045761;28;20513;-43
2022/04/12 05:10:02;;;;;;;5.83;4.40;;;8.60;59.90;;;;;;5044274;28;20412;-43
2022/04/12 05:12:28;;;;;;;6.20;4.50;;;8.60;60.00;;;;;;5047368;28;20437;-42
2022/04/12 05:14:54;;;;;;;5.43;4.63;;;8.60;60.30;;;;;;5045730;28;20571;-43
2022/04/12 05:17:29;;;;;;;4.17;3.77;;;8.60;60.40;;;;;;5042833;28;20456;-45
2022/04/12 05:19:58;;;;;;;5.33;4.83;;;8.60;60.60;;;;;;5047853;28;20551;-43
2022/04/12 05:22:24;;;;;;;8.07;4.87;;;8.70;60.70;;;;;;5047034;28;20628;-44
2022/04/12 05:24:50;;;;;;;4.97;4.47;;;8.70;60.60;;;;;;5046225;28;20412;-42
2022/04/12 05:27:16;;;;;;;7.43;4.87;;;8.70;60.50;;;;;;5030313;28;20480;-44
2022/04/12 05:29:43;;;;;;;4.93;4.43;;;8.80;60.40;;;;;;5043091;28;20440;-43
2022/04/12 05:32:09;;;;;;;6.40;4.90;;;8.90;60.30;;;;;;5044412;28;20723;-43
2022/04/12 05:34:42;;;;;;;4.67;3.90;;;8.90;60.00;;;;;;5048043;28;20417;-43
2022/04/12 05:37:08;;;;;;;4.70;4.30;;;9.00;60.00;;;;;;5046921;28;20600;-43
2022/04/12 05:39:34;;;;;;;5.00;4.10;;;9.10;60.20;;;;;;5044462;28;20414;-44
2022/04/12 05:42:00;;;;;;;11.40;4.43;;;9.20;60.30;;;;;;5044623;28;20514;-43
2022/04/12 05:44:32;;;;;;;5.20;4.70;;;9.20;60.40;;;;;;5044098;28;20760;-43
2022/04/12 05:46:59;;;;;;;6.67;4.50;;;9.30;60.60;;;;;;5045641;28;20688;-44
2022/04/12 05:49:25;;;;;;;4.50;4.07;;;9.40;60.70;;;;;;5046038;28;20850;-44
2022/04/12 05:51:50;;;;;;;5.47;4.70;;;9.50;60.70;;;;;;5044023;28;20481;-46
2022/04/12 05:54:16;;;;;;;4.33;3.93;;;9.60;60.90;;;;;;5048688;28;20178;-44
2022/04/12 05:56:41;;;;;;;5.13;4.03;;;9.60;61.00;;;;;;5047824;28;20186;-43
2022/04/12 05:59:07;;;;;;;5.33;4.83;;;9.70;61.00;;;;;;5045643;28;20508;-43
2022/04/12 06:01:33;;;;;;;4.33;3.83;;;9.80;61.20;;;;;;5046282;28;20444;-43
2022/04/12 06:03:58;;;;;;;4.50;3.53;;;9.90;61.30;;;;;;5045680;28;20397;-45
2022/04/12 06:06:24;;;;;;;5.10;4.20;;;10.10;60.10;;;;;;5045024;28;20171;-43
2022/04/12 06:08:49;;;;;;;7.67;3.70;;;10.30;60.10;;;;;;5045709;28;20170;-45
2022/04/12 06:11:15;;;;;;;4.80;4.40;;;10.50;59.80;;;;;;5046773;28;20167;-44
2022/04/12 06:13:41;;;;;;;4.30;3.90;;;10.80;59.50;;;;;;5044980;28;20414;-47
2022/04/12 06:16:06;;;;;;;4.93;4.30;;;11.00;59.10;;;;;;5045452;28;20796;-45
2022/04/12 06:18:32;;;;;;;4.57;4.10;;;11.30;58.80;;;;;;5043484;28;20273;-43
2022/04/12 06:20:58;;;;;;;4.37;3.97;;;11.50;58.30;;;;;;5043346;28;20182;-43
2022/04/12 06:23:24;;;;;;;5.07;4.53;;;11.70;57.80;;;;;;5046259;28;20214;-44
2022/04/12 06:25:49;;;;;;;6.13;4.30;;;11.90;57.20;;;;;;5045202;28;20305;-44
2022/04/12 06:28:15;;;;;;;5.20;4.10;;;12.10;56.70;;;;;;5047317;28;20249;-45
2022/04/12 06:30:40;;;;;;;5.13;4.27;;;12.30;56.20;;;;;;5051517;28;20170;-47
2022/04/12 06:33:06;;;;;;;6.50;4.63;;;12.50;55.70;;;;;;5050196;28;20178;-44
2022/04/12 06:35:31;;;;;;;4.40;3.83;;;12.70;55.20;;;;;;5051030;28;20508;-44
2022/04/12 06:37:57;;;;;;;6.30;4.63;;;12.90;54.80;;;;;;5049784;28;20182;-45
2022/04/12 06:40:24;;;;;;;4.60;4.20;;;13.10;54.30;;;;;;5050132;28;20273;-44
2022/04/12 06:42:50;;;;;;;4.83;4.40;;;13.30;53.80;;;;;;5049317;28;20252;-46
2022/04/12 06:45:16;;;;;;;5.50;4.70;;;13.60;53.40;;;;;;5050852;28;20489;-46
2022/04/12 06:47:43;;;;;;;5.10;4.17;;;13.90;52.70;;;;;;5052018;28;20834;-44
2022/04/12 06:50:10;;;;;;;4.67;3.80;;;14.10;52.00;;;;;;5048415;28;20424;-45
2022/04/12 06:52:37;;;;;;;4.90;4.40;;;14.40;51.40;;;;;;5051522;28;20673;-44
2022/04/12 06:55:04;;;;;;;5.23;4.67;;;14.60;50.70;;;;;;5053054;28;20438;-45
2022/04/12 06:57:32;;;;;;;7.60;3.83;;;14.90;50.10;;;;;;5035472;28;20424;-45
2022/04/12 06:59:57;;;;;;;7.67;4.63;;;15.10;49.40;;;;;;5048701;28;21018;-45
2022/04/12 07:02:23;;;;;;;5.60;4.70;;;15.40;48.80;;;;;;5047364;28;20512;-47
2022/04/12 07:04:49;;;;;;;4.70;4.20;;;15.60;48.30;;;;;;5049675;28;20174;-43
2022/04/12 07:07:14;;;;;;;4.60;4.20;;;15.80;47.30;;;;;;5048833;28;20333;-44
2022/04/12 07:09:40;;;;;;;4.97;4.47;;;16.10;46.90;;;;;;5049745;28;20202;-48
2022/04/12 07:12:06;;;;;;;5.40;4.67;;;16.30;46.40;;;;;;5048058;28;20185;-45
2022/04/12 07:14:33;;;;;;;6.23;4.40;;;16.50;45.60;;;;;;5050574;28;20994;-45
2022/04/12 07:16:59;;;;;;;4.63;4.10;;;16.70;44.80;;;;;;5051657;28;20401;-46
2022/04/12 07:19:25;;;;;;;7.63;5.07;;;16.90;44.50;;;;;;5045361;28;21047;-46
2022/04/12 07:21:52;;;;;;;4.80;4.10;;;17.10;44.20;;;;;;5031970;28;20633;-46
2022/04/12 07:24:17;;;;;;;7.27;4.53;;;17.30;43.60;;;;;;5031383;28;20488;-47
2022/04/12 07:26:43;;;;;;;5.77;5.20;;;17.40;42.90;;;;;;5031384;28;20466;-45
2022/04/12 07:29:09;;;;;;;6.13;4.53;;;17.40;42.30;;;;;;5031118;28;20175;-44
2022/04/12 07:31:34;;;;;;;5.80;4.70;;;17.50;42.00;;;;;;5029604;28;20215;-45
2022/04/12 07:34:01;;;;;;;5.27;4.50;;;17.60;41.70;;;;;;5029112;28;20182;-45
2022/04/12 07:36:27;;;;;;;4.70;4.10;;;17.70;41.30;;;;;;5028519;28;20501;-44
2022/04/12 07:38:52;;;;;;;4.50;4.10;;;17.90;41.00;;;;;;5027977;28;20652;-46
2022/04/12 07:41:19;;;;;;;5.40;4.40;;;18.00;40.70;;;;;;5030590;28;20194;-45
2022/04/12 07:43:45;;;;;;;6.17;4.90;;;18.10;40.20;;;;;;5049654;28;20456;-44
2022/04/12 07:46:14;;;;;;;5.73;5.10;;;18.30;40.00;;;;;;5048678;28;20421;-46
2022/04/12 07:48:40;;;;;;;6.27;4.67;;;18.40;40.00;;;;;;5050307;28;20516;-44
2022/04/12 07:51:06;;;;;;;5.77;4.43;;;18.60;39.80;;;;;;5050670;28;20571;-46
2022/04/12 07:53:32;;;;;;;4.87;4.37;;;18.90;39.80;;;;;;5050480;28;20679;-44
2022/04/12 07:55:57;;;;;;;4.53;4.00;;;19.10;39.50;;;;;;5050387;28;20239;-44
2022/04/12 07:58:23;;;;;;;5.67;5.10;;;19.30;39.30;;;;;;5048667;28;20182;-45
2022/04/12 08:00:49;;;;;;;5.40;4.40;;;19.60;39.10;;;;;;5050491;28;20184;-45
2022/04/12 08:03:15;;;;;;;3.97;3.63;;;19.80;39.00;;;;;;5050217;28;20199;-44
2022/04/12 08:05:41;;;;;;;5.80;3.97;;;20.00;38.80;;;;;;5051586;28;20505;-46
2022/04/12 08:08:06;;;;;;;4.63;4.00;;;20.30;38.70;;;;;;5049665;28;20176;-44
2022/04/12 08:10:32;;;;;;;4.27;3.87;;;20.60;38.70;;;;;;5048885;28;20412;-44
2022/04/12 08:12:58;;;;;;;4.83;4.33;;;20.90;38.40;;;;;;5049871;28;20623;-44
2022/04/12 08:15:26;;;;;;;6.00;4.23;;;21.10;37.90;;;;;;5048217;28;20190;-46
2022/04/12 08:17:51;;;;;;;3.93;3.50;;;21.40;37.90;;;;;;5050015;28;20447;-44
2022/04/12 08:20:17;;;;;;;4.23;3.57;;;21.60;37.80;;;;;;5052007;28;20909;-44
2022/04/12 08:22:43;;;;;;;4.90;4.20;;;21.80;37.60;;;;;;5048491;28;20507;-45
2022/04/12 08:25:10;;;;;;;4.37;3.50;;;21.90;37.00;;;;;;5048634;28;20566;-44
2022/04/12 08:27:37;;;;;;;5.13;3.93;;;22.10;36.80;;;;;;5048567;28;20631;-44
2022/04/12 08:30:06;;;;;;;3.90;3.03;;;22.30;36.70;;;;;;5047417;28;20435;-45
2022/04/12 08:32:33;;;;;;;4.50;3.40;;;22.40;36.40;;;;;;5049939;28;20406;-45
2022/04/12 08:34:59;;;;;;;3.10;2.77;;;22.60;36.30;;;;;;5048710;28;20948;-47
2022/04/12 08:37:24;;;;;;;3.60;3.30;;;22.90;36.30;;;;;;5047955;28;20504;-44
2022/04/12 08:39:50;;;;;;;5.03;3.47;;;23.10;35.90;;;;;;5050184;28;20236;-45
2022/04/12 08:42:17;;;;;;;4.77;3.20;;;23.40;35.80;;;;;;5050352;28;20195;-44
2022/04/12 08:44:45;;;;;;;3.70;3.27;;;23.70;35.70;;;;;;5050465;28;20415;-45
2022/04/12 08:47:14;;;;;;;4.53;3.50;;;24.00;35.40;;;;;;5050758;28;20524;-46
2022/04/12 08:49:40;;;;;;;4.53;3.07;;;24.20;35.30;;;;;;5050480;28;20559;-46
2022/04/12 08:52:11;;;;;;;3.67;3.33;;;24.50;35.10;;;;;;5049470;28;20415;-46
2022/04/12 08:54:41;;;;;;;3.50;3.20;;;24.80;34.90;;;;;;5050117;28;20433;-47
2022/04/12 08:57:08;;;;;;;3.53;3.20;;;25.10;34.40;;;;;;5049065;28;20445;-44
2022/04/12 08:59:33;;;;;;;4.10;2.97;;;25.30;34.50;;;;;;5050313;28;20739;-43
2022/04/12 09:02:00;;;;;;;4.20;3.07;;;25.40;34.90;;;;;;5049964;28;20428;-46
2022/04/12 09:04:26;;;;;;;2.87;2.60;;;25.40;34.70;;;;;;5047418;28;20220;-43
2022/04/12 09:06:57;;;;;;;5.33;3.10;;;25.40;34.70;;;;;;5047727;28;20437;-44
2022/04/12 09:09:30;;;;;;;3.83;2.47;;;25.20;34.30;;;;;;5050339;28;20532;-43
2022/04/12 09:12:02;;;;;;;3.00;2.50;;;25.20;34.60;;;;;;5048349;28;20886;-45
2022/04/12 09:14:52;;;;;;;2.87;2.57;;;25.20;34.80;;;;;;5048604;28;20822;-43
2022/04/12 09:17:37;;;;;;;2.80;2.30;;;25.30;34.80;;;;;;5047870;28;20434;-43
2022/04/12 09:20:14;;;;;;;2.90;2.40;;;25.60;35.10;;;;;;5050050;28;20421;-44
2022/04/12 09:22:40;;;;;;;2.73;2.53;;;26.00;35.60;;;;;;5050838;28;20576;-43
2022/04/12 09:25:07;;;;;;;2.60;2.40;;;26.40;34.10;;;;;;5046504;28;20599;-45
2022/04/12 09:27:34;;;;;;;2.87;2.23;;;26.90;33.90;;;;;;5047869;28;20903;-44
2022/04/12 09:30:02;;;;;;;2.50;2.30;;;27.30;33.70;;;;;;5041553;28;20432;-46
2022/04/12 09:32:30;;;;;;;2.90;2.60;;;27.70;33.70;;;;;;5035437;28;20731;-43
2022/04/12 09:34:56;;;;;;;3.70;2.10;;;28.00;31.90;;;;;;5027783;28;20933;-45
2022/04/12 09:37:27;;;;;;;2.43;2.23;;;28.40;32.60;;;;;;5027315;28;20828;-43
2022/04/12 09:39:58;;;;;;;1.97;1.77;;;28.70;32.90;;;;;;5026825;28;20416;-45
2022/04/12 09:42:51;;;;;;;2.10;1.70;;;28.90;32.60;;;;;;5029384;28;20719;-44
2022/04/12 09:45:19;;;;;;;3.13;2.37;;;29.20;31.40;;;;;;5029210;28;20413;-44
2022/04/12 09:47:47;;;;;;;2.57;2.37;;;29.40;30.00;;;;;;5029778;28;20443;-46
2022/04/12 09:50:13;;;;;;;2.70;1.87;;;29.60;29.90;;;;;;5045459;28;20692;-43
2022/04/12 09:52:39;;;;;;;2.73;1.90;;;29.90;30.00;;;;;;5028425;28;20415;-44
2022/04/12 09:55:08;;;;;;;2.50;2.13;;;29.80;28.30;;;;;;5027340;28;20179;-44
2022/04/12 09:57:37;;;;;;;2.30;2.10;;;30.20;28.90;;;;;;5028518;28;20616;-44
2022/04/12 10:00:03;;;;;;;3.83;2.87;;;30.40;28.30;;;;;;5033470;28;20444;-46
2022/04/12 10:02:29;;;;;;;2.83;2.60;;;30.50;27.90;;;;;;5047700;28;20593;-45
2022/04/12 10:04:56;;;;;;;2.07;1.87;;;30.60;28.00;;;;;;5050827;28;20468;-47
2022/04/12 10:07:23;;;;;;;2.33;2.13;;;30.50;28.40;;;;;;5052792;28;20597;-45
2022/04/12 10:09:50;;;;;;;4.10;2.30;;;30.50;28.60;;;;;;5052231;28;20808;-43
2022/04/12 10:12:17;;;;;;;2.47;2.27;;;30.60;28.70;;;;;;5052327;28;20412;-44
2022/04/12 10:14:44;;;;;;;1.93;1.73;;;30.60;29.00;;;;;;5050729;28;20443;-45
2022/04/12 10:17:10;;;;;;;2.20;1.90;;;30.60;28.70;;;;;;5051877;28;20469;-45
2022/04/12 10:19:36;;;;;;;2.23;2.03;;;30.60;28.30;;;;;;5049275;28;20408;-45
2022/04/12 10:22:03;;;;;;;2.27;2.07;;;30.50;28.40;;;;;;5051852;28;20386;-44
2022/04/12 10:24:29;;;;;;;2.40;2.07;;;30.30;27.90;;;;;;5051565;28;20210;-44
2022/04/12 10:26:55;;;;;;;2.30;1.53;;;30.20;28.70;;;;;;5050868;28;20784;-44
2022/04/12 10:29:21;;;;;;;2.10;1.90;;;30.10;28.90;;;;;;5049897;28;20403;-46
2022/04/12 10:31:58;;;;;;;2.20;1.97;;;30.10;28.80;;;;;;5052393;28;20415;-44
2022/04/12 10:34:24;;;;;;;2.00;1.80;;;30.20;28.30;;;;;;5050589;28;20206;-48
2022/04/12 10:37:04;;;;;;;2.13;1.93;;;30.50;28.30;;;;;;5052466;28;20756;-45
2022/04/12 10:39:32;;;;;;;3.57;1.90;;;30.80;27.90;;;;;;5049799;28;20218;-45
2022/04/12 10:42:01;;;;;;;3.17;2.07;;;31.00;28.40;;;;;;5051060;28;20397;-43
2022/04/12 10:44:26;;;;;;;2.23;1.70;;;31.30;27.80;;;;;;5047028;28;20457;-45
2022/04/12 10:46:54;;;;;;;1.83;1.73;;;31.50;28.20;;;;;;5050878;28;20794;-45
2022/04/12 10:49:21;;;;;;;3.30;2.20;;;31.70;28.00;;;;;;5049142;28;20180;-45
2022/04/12 10:51:55;;;;;;;2.13;1.90;;;32.00;27.30;;;;;;5052445;28;20418;-45
2022/04/12 10:54:31;;;;;;;3.30;1.97;;;32.30;27.70;;;;;;5033716;28;20421;-44
2022/04/12 10:57:21;;;;;;;2.30;1.60;;;32.60;27.50;;;;;;5030920;28;20832;-52
2022/04/12 11:00:08;;;;;;;2.10;1.70;;;32.80;27.40;;;;;;5034969;28;21085;-46
2022/04/12 11:02:38;;;;;;;3.10;2.00;;;33.10;27.80;;;;;;5045438;28;20533;-46
2022/04/12 11:05:06;;;;;;;2.83;1.83;;;33.00;26.40;;;;;;5039345;28;20444;-45
2022/04/12 11:07:34;;;;;;;3.07;2.20;;;33.10;26.80;;;;;;5029750;28;20420;-45
2022/04/12 11:10:06;;;;;;;4.63;1.90;;;33.10;26.70;;;;;;5029722;28;20868;-45
2022/04/12 11:12:43;;;;;;;2.97;1.90;;;33.30;27.00;;;;;;5027726;28;20638;-43
2022/04/12 11:15:25;;;;;;;2.63;1.70;;;33.50;26.60;;;;;;5026259;28;20432;-44
2022/04/12 11:18:13;;;;;;;5.00;2.20;;;34.00;26.60;;;;;;5027589;28;20395;-46
2022/04/12 11:20:41;;;;;;;2.83;2.23;;;34.40;26.20;;;;;;5026880;28;20439;-44
2022/04/12 11:23:09;;;;;;;2.43;2.23;;;34.60;25.60;;;;;;5027724;28;20468;-44
2022/04/12 11:25:43;;;;;;;3.10;1.97;;;34.80;25.40;;;;;;5026879;28;20452;-45
2022/04/12 11:28:09;;;;;;;2.97;2.20;;;34.90;24.90;;;;;;5011358;28;21196;-46
2022/04/12 11:30:35;;;;;;;3.33;2.10;;;35.00;25.20;;;;;;5041437;28;20403;-45
2022/04/12 11:33:01;;;;;;;2.93;2.20;;;35.10;25.30;;;;;;5050199;28;20178;-45
2022/04/12 11:35:26;;;;;;;2.23;2.00;;;35.20;25.10;;;;;;5049332;28;20483;-44
2022/04/12 11:37:52;;;;;;;2.63;1.97;;;35.30;25.10;;;;;;5048741;28;20300;-45
2022/04/12 11:40:18;;;;;;;2.10;1.83;;;35.30;24.80;;;;;;5049962;28;20319;-44
2022/04/12 11:42:44;;;;;;;2.90;2.20;;;35.10;24.20;;;;;;5047921;28;20473;-44
2022/04/12 11:45:13;;;;;;;2.20;2.00;;;34.80;24.00;;;;;;5049500;28;20185;-46
2022/04/12 11:47:43;;;;;;;2.20;1.70;;;34.60;24.00;;;;;;5047715;28;20311;-43
2022/04/12 11:50:18;;;;;;;3.20;2.40;;;34.30;24.20;;;;;;5045625;28;20427;-46
2022/04/12 11:52:45;;;;;;;5.53;1.90;;;34.10;24.40;;;;;;5050152;28;20394;-45
2022/04/12 11:55:12;;;;;;;2.30;2.00;;;34.10;24.70;;;;;;5047771;28;20940;-46
2022/04/12 11:57:37;;;;;;;2.50;1.90;;;34.10;24.70;;;;;;5049720;28;20765;-44
2022/04/12 12:00:04;;;;;;;2.97;1.90;;;34.20;24.80;;;;;;5049211;28;20521;-45
2022/04/12 12:02:31;;;;;;;2.00;1.70;;;34.10;24.40;;;;;;5051528;28;20291;-45
2022/04/12 12:05:05;;;;;;;1.93;1.60;;;34.00;24.50;;;;;;5048635;28;20398;-43
2022/04/12 12:07:31;;;;;;;3.17;2.37;;;34.10;24.70;;;;;;5047000;28;20411;-45
2022/04/12 12:10:08;;;;;;;3.30;2.10;;;34.10;24.50;;;;;;5048203;28;20683;-44
2022/04/12 12:12:37;;;;;;;2.37;1.90;;;34.10;24.70;;;;;;5048864;28;20409;-43
2022/04/12 12:15:12;;;;;;;3.07;1.83;;;34.10;24.70;;;;;;5048983;28;20662;-46
2022/04/12 12:17:39;;;;;;;2.93;2.30;;;34.10;24.80;;;;;;5051577;28;20678;-44
2022/04/12 12:20:07;;;;;;;3.33;2.00;;;34.10;24.70;;;;;;5050014;28;20447;-47
2022/04/12 12:22:37;;;;;;;2.40;2.20;;;33.90;24.80;;;;;;5050062;28;20391;-44
2022/04/12 12:25:03;;;;;;;3.40;2.20;;;33.80;24.90;;;;;;5050074;28;20440;-44
2022/04/12 12:27:35;;;;;;;2.90;2.00;;;33.70;24.90;;;;;;5048724;28;20478;-44
2022/04/12 12:30:15;;;;;;;2.97;2.27;;;33.60;25.10;;;;;;5047984;28;20561;-43
2022/04/12 12:32:42;;;;;;;2.93;2.20;;;33.40;25.30;;;;;;5051388;28;20414;-46
2022/04/12 12:35:15;;;;;;;2.30;2.10;;;33.40;25.60;;;;;;5047395;28;20424;-44
2022/04/12 12:37:42;;;;;;;5.40;2.30;;;33.30;25.50;;;;;;5047474;28;20681;-43
2022/04/12 12:40:22;;;;;;;1.97;1.77;;;33.30;25.40;;;;;;5046624;28;20435;-47
2022/04/12 12:42:49;;;;;;;2.20;1.90;;;33.10;25.10;;;;;;5048298;28;20583;-43
2022/04/12 12:45:17;;;;;;;3.97;1.70;;;33.00;25.10;;;;;;5047200;28;20439;-45
2022/04/12 12:47:44;;;;;;;2.33;1.90;;;33.00;25.30;;;;;;5048056;28;20450;-44
2022/04/12 12:50:11;;;;;;;2.07;1.67;;;33.00;25.50;;;;;;5050299;28;20403;-44
2022/04/12 12:52:38;;;;;;;2.17;1.83;;;33.00;25.30;;;;;;5049314;28;20414;-44
2022/04/12 12:55:09;;;;;;;4.40;1.60;;;33.10;25.30;;;;;;5049835;28;20526;-44
2022/04/12 12:57:40;;;;;;;3.00;1.80;;;33.00;25.50;;;;;;5046204;28;21032;-43